Time;durP1;ratioP1;P1;durP2;ratioP2;P2;SDS_P1;SDS_P2;PMS_P1;PMS_P2;Temp;Humidity;BMP_temperature;BMP_pressure;BME280_temperature;BME280_humidity;BME280_pressure;Samples;Min_cycle;Max_cycle;Signal;HPM_P1;HPM_P2
2022/01/27 00:01:26;;;;;;;38.33;18.80;;;5.80;99.90;;;;;;5043458;28;20143;-67
2022/01/27 00:06:49;;;;;;;33.35;18.90;;;5.70;99.90;;;;;;5031906;28;20071;-67
2022/01/27 00:09:21;;;;;;;33.42;19.58;;;5.70;99.90;;;;;;5048120;28;21758;-67
2022/01/27 00:11:48;;;;;;;34.10;19.52;;;5.70;99.90;;;;;;5048885;28;20120;-68
2022/01/27 00:14:15;;;;;;;35.22;19.27;;;5.70;99.90;;;;;;5047397;28;20480;-67
2022/01/27 00:16:51;;;;;;;32.95;19.52;;;5.70;99.90;;;;;;5039967;28;20068;-68
2022/01/27 00:19:16;;;;;;;34.35;18.92;;;5.70;99.90;;;;;;5044786;28;20045;-67
2022/01/27 00:21:42;;;;;;;32.22;18.23;;;5.70;99.90;;;;;;5039402;28;20064;-68
2022/01/27 00:24:07;;;;;;;35.80;19.55;;;5.80;99.90;;;;;;5047987;28;20041;-67
2022/01/27 00:26:33;;;;;;;33.33;18.33;;;5.70;99.90;;;;;;5043390;28;20041;-67
2022/01/27 00:28:58;;;;;;;31.35;17.65;;;5.70;99.90;;;;;;5043649;28;20133;-68
2022/01/27 00:31:24;;;;;;;32.60;18.27;;;5.70;99.90;;;;;;5042713;28;20064;-67
2022/01/27 00:33:51;;;;;;;32.13;17.95;;;5.70;99.90;;;;;;5044413;28;20124;-66
2022/01/27 00:36:17;;;;;;;31.13;17.42;;;5.70;99.90;;;;;;5045944;28;20047;-67
2022/01/27 00:38:43;;;;;;;31.45;18.08;;;5.80;99.90;;;;;;5031222;28;20124;-68
2022/01/27 00:41:08;;;;;;;29.50;17.38;;;5.70;99.90;;;;;;5044070;28;20037;-67
2022/01/27 00:43:34;;;;;;;31.17;17.40;;;5.70;99.90;;;;;;5049179;28;20358;-68
2022/01/27 00:46:00;;;;;;;32.75;17.63;;;5.80;99.90;;;;;;5045079;28;20376;-68
2022/01/27 00:48:26;;;;;;;30.77;17.02;;;5.80;99.90;;;;;;5045379;28;20041;-67
2022/01/27 00:50:58;;;;;;;29.38;16.98;;;5.80;99.90;;;;;;5045515;28;20140;-68
2022/01/27 00:53:41;;;;;;;32.40;17.55;;;5.80;99.90;;;;;;5044016;28;20052;-67
2022/01/27 00:56:19;;;;;;;33.03;16.85;;;5.80;99.90;;;;;;5045490;28;20789;-69
2022/01/27 00:58:58;;;;;;;32.15;17.63;;;5.80;99.90;;;;;;5048754;28;20049;-67
2022/01/27 01:01:29;;;;;;;31.25;17.20;;;5.80;99.90;;;;;;5046616;28;20403;-67
2022/01/27 01:04:08;;;;;;;33.65;16.90;;;5.90;99.90;;;;;;5085949;27;20414;-68
2022/01/27 01:11:53;;;;;;;26.60;16.33;;;5.80;99.90;;;;;;5062078;28;20045;-67
2022/01/27 01:20:20;;;;;;;31.67;18.17;;;5.80;99.90;;;;;;5073719;28;20048;-67
2022/01/27 01:33:26;;;;;;;27.70;16.60;;;5.80;99.90;;;;;;5038507;28;20037;-68
2022/01/27 01:35:52;;;;;;;30.45;17.38;;;5.80;99.90;;;;;;5059529;28;20095;-68
2022/01/27 01:38:20;;;;;;;33.50;17.13;;;5.80;99.90;;;;;;5063674;28;20496;-69
2022/01/27 01:40:48;;;;;;;32.13;17.33;;;5.80;99.90;;;;;;5051928;28;20037;-68
2022/01/27 01:43:15;;;;;;;32.85;17.70;;;5.80;99.90;;;;;;5051058;28;20457;-68
2022/01/27 01:45:40;;;;;;;30.63;17.95;;;5.80;99.90;;;;;;5063998;28;20471;-67
2022/01/27 01:48:06;;;;;;;34.03;18.35;;;5.70;99.90;;;;;;5060382;28;20121;-68
2022/01/27 01:50:32;;;;;;;33.97;18.08;;;5.70;99.90;;;;;;5055172;28;20071;-68
2022/01/27 01:52:58;;;;;;;31.55;18.20;;;5.80;99.90;;;;;;5064901;28;20050;-67
2022/01/27 01:55:23;;;;;;;33.47;17.60;;;5.70;99.90;;;;;;5063781;28;20045;-67
2022/01/27 01:57:51;;;;;;;34.28;19.10;;;5.80;99.90;;;;;;5059310;28;20737;-68
2022/01/27 02:00:17;;;;;;;36.28;18.88;;;5.70;99.90;;;;;;5055933;28;20471;-68
2022/01/27 02:02:43;;;;;;;34.03;18.38;;;5.80;99.90;;;;;;5059865;28;20170;-68
2022/01/27 02:05:09;;;;;;;33.05;18.10;;;5.80;99.90;;;;;;5061223;28;20144;-67
2022/01/27 02:07:48;;;;;;;36.13;19.10;;;5.80;99.90;;;;;;5053584;28;20087;-68
2022/01/27 02:18:09;;;;;;;35.55;19.80;;;5.80;99.90;;;;;;5043766;28;20048;-69
2022/01/27 02:20:38;;;;;;;35.25;18.15;;;5.70;99.90;;;;;;5046585;28;20441;-68
2022/01/27 02:23:08;;;;;;;33.75;19.23;;;5.80;99.90;;;;;;5052763;28;20056;-68
2022/01/27 02:25:34;;;;;;;34.30;19.90;;;5.70;99.90;;;;;;5044637;28;20086;-68
2022/01/27 02:28:00;;;;;;;34.25;19.63;;;5.70;99.90;;;;;;5058516;28;20044;-68
2022/01/27 02:30:26;;;;;;;38.17;19.77;;;5.70;99.90;;;;;;5047857;28;20041;-68
2022/01/27 02:32:52;;;;;;;35.15;19.55;;;5.60;99.90;;;;;;5036771;28;20115;-67
2022/01/27 02:35:19;;;;;;;32.55;17.98;;;5.60;99.90;;;;;;5044868;28;20037;-68
2022/01/27 02:37:45;;;;;;;32.42;19.52;;;5.60;99.90;;;;;;5040298;28;20167;-68
2022/01/27 02:40:12;;;;;;;33.65;17.88;;;5.60;99.90;;;;;;5048297;28;20448;-67
2022/01/27 02:42:38;;;;;;;38.05;20.35;;;5.60;99.90;;;;;;5040795;28;20068;-68
2022/01/27 02:45:06;;;;;;;33.90;19.60;;;5.60;99.90;;;;;;5039863;28;20076;-68
2022/01/27 02:47:32;;;;;;;34.17;18.70;;;5.60;99.90;;;;;;5045625;28;20060;-68
2022/01/27 02:49:57;;;;;;;32.67;18.88;;;5.60;99.90;;;;;;5044727;28;20075;-68
2022/01/27 02:52:23;;;;;;;33.90;18.15;;;5.60;99.90;;;;;;5048514;28;20041;-68
2022/01/27 02:54:49;;;;;;;37.63;19.55;;;5.60;99.90;;;;;;5036782;28;20099;-67
2022/01/27 02:57:15;;;;;;;34.42;19.38;;;5.60;99.90;;;;;;5047203;28;20051;-67
2022/01/27 02:59:40;;;;;;;34.42;18.85;;;5.60;99.90;;;;;;5051191;28;20143;-68
2022/01/27 03:02:06;;;;;;;32.60;18.38;;;5.60;99.90;;;;;;5017406;28;20053;-67
2022/01/27 03:04:33;;;;;;;36.42;19.48;;;5.60;99.90;;;;;;5046416;28;20128;-68
2022/01/27 03:07:01;;;;;;;35.58;18.80;;;5.60;99.90;;;;;;5022377;28;20048;-68
2022/01/27 03:09:27;;;;;;;37.80;19.48;;;5.60;99.90;;;;;;5046037;28;20170;-68
2022/01/27 03:12:07;;;;;;;32.53;19.35;;;5.60;99.90;;;;;;5046734;28;20102;-67
2022/01/27 03:14:34;;;;;;;35.40;19.25;;;5.60;99.90;;;;;;5041737;28;20449;-68
2022/01/27 03:17:03;;;;;;;33.78;18.50;;;5.60;99.90;;;;;;5037032;28;20128;-68
2022/01/27 03:19:29;;;;;;;38.83;19.70;;;5.60;99.90;;;;;;5046923;28;20191;-68
2022/01/27 03:21:56;;;;;;;35.80;19.02;;;5.70;99.90;;;;;;5056078;28;20087;-67
2022/01/27 03:24:24;;;;;;;37.67;19.65;;;5.70;99.90;;;;;;5047408;28;20132;-68
2022/01/27 03:26:51;;;;;;;34.22;18.70;;;5.60;99.90;;;;;;5049742;28;20477;-68
2022/01/27 03:29:18;;;;;;;35.47;19.10;;;5.70;99.90;;;;;;5042649;28;20045;-67
2022/01/27 03:31:45;;;;;;;33.25;19.00;;;5.70;99.90;;;;;;5049253;28;20395;-68
2022/01/27 03:34:11;;;;;;;35.72;19.15;;;5.70;99.90;;;;;;5043704;28;20088;-68
2022/01/27 03:36:36;;;;;;;33.55;19.92;;;5.70;99.90;;;;;;5039425;28;20119;-68
2022/01/27 03:39:03;;;;;;;35.67;18.15;;;5.70;99.90;;;;;;5049610;28;20056;-68
2022/01/27 03:41:32;;;;;;;37.05;19.58;;;5.70;99.90;;;;;;5047998;28;20045;-67
2022/01/27 03:43:58;;;;;;;31.83;18.60;;;5.70;99.90;;;;;;5053998;28;20162;-68
2022/01/27 03:46:24;;;;;;;37.63;19.30;;;5.70;99.90;;;;;;5046418;28;20121;-67
2022/01/27 03:48:49;;;;;;;34.65;19.60;;;5.80;99.90;;;;;;5045523;28;20473;-67
2022/01/27 03:51:15;;;;;;;34.97;19.90;;;5.70;99.90;;;;;;5044732;28;20140;-68
2022/01/27 03:53:41;;;;;;;35.80;19.30;;;5.80;99.90;;;;;;5047628;28;20069;-67
2022/01/27 03:56:07;;;;;;;39.33;19.85;;;5.70;99.90;;;;;;5051264;28;20151;-70
2022/01/27 03:58:33;;;;;;;36.47;19.48;;;5.70;99.90;;;;;;5043408;28;20037;-68
2022/01/27 04:01:01;;;;;;;38.13;19.77;;;5.70;99.90;;;;;;5032305;28;21777;-68
2022/01/27 04:03:30;;;;;;;40.70;20.38;;;5.70;99.90;;;;;;5034679;28;20445;-68
2022/01/27 04:06:03;;;;;;;37.00;19.65;;;5.70;99.90;;;;;;5038264;28;20487;-67
2022/01/27 04:08:28;;;;;;;33.70;19.77;;;5.70;99.90;;;;;;5040819;28;20053;-68
2022/01/27 04:10:54;;;;;;;35.15;19.08;;;5.70;99.90;;;;;;5037208;28;20041;-68
2022/01/27 04:13:19;;;;;;;36.70;19.58;;;5.70;99.90;;;;;;5037827;28;20050;-68
2022/01/27 04:15:46;;;;;;;37.08;18.63;;;5.80;99.90;;;;;;5034826;28;20038;-68
2022/01/27 04:18:12;;;;;;;38.22;18.75;;;5.80;99.90;;;;;;5036315;28;20071;-67
2022/01/27 04:20:39;;;;;;;31.42;18.30;;;5.80;99.90;;;;;;5049985;28;20495;-68
2022/01/27 04:23:05;;;;;;;34.88;19.83;;;5.80;99.90;;;;;;5032761;28;20059;-68
2022/01/27 04:25:30;;;;;;;35.72;18.92;;;5.80;99.90;;;;;;5042286;28;20360;-67
2022/01/27 04:28:01;;;;;;;36.20;18.08;;;5.80;99.90;;;;;;5035208;28;20171;-68
2022/01/27 04:30:27;;;;;;;36.58;18.20;;;5.80;99.90;;;;;;5035869;28;20049;-67
2022/01/27 04:32:57;;;;;;;33.72;19.00;;;5.80;99.90;;;;;;5035086;28;20069;-67
2022/01/27 04:35:25;;;;;;;37.63;19.50;;;5.80;99.90;;;;;;5047670;28;20435;-69
2022/01/27 04:38:10;;;;;;;34.83;17.52;;;5.90;99.90;;;;;;5042955;28;20041;-67
2022/01/27 04:40:44;;;;;;;38.35;18.50;;;5.90;99.90;;;;;;5045493;28;20358;-67
2022/01/27 04:43:28;;;;;;;33.22;17.33;;;5.90;99.90;;;;;;5044465;28;20045;-67
2022/01/27 04:48:53;;;;;;;33.88;18.33;;;5.90;99.90;;;;;;5035729;28;20106;-67
2022/01/27 04:51:21;;;;;;;34.97;18.58;;;5.90;99.90;;;;;;5036687;28;20120;-68
2022/01/27 04:53:55;;;;;;;34.13;17.20;;;5.90;99.90;;;;;;5043256;28;20041;-67
2022/01/27 04:56:22;;;;;;;32.20;17.13;;;5.90;99.90;;;;;;5042543;28;20120;-67
2022/01/27 04:58:53;;;;;;;36.38;17.63;;;6.00;99.90;;;;;;5034651;28;20052;-67
2022/01/27 05:01:21;;;;;;;31.63;17.38;;;6.00;99.90;;;;;;5046451;28;20179;-68
2022/01/27 05:03:53;;;;;;;37.85;18.90;;;6.00;99.90;;;;;;5043237;28;20061;-68
2022/01/27 05:06:19;;;;;;;35.28;18.38;;;6.00;99.90;;;;;;5041692;28;20053;-67
2022/01/27 05:08:44;;;;;;;30.90;17.77;;;6.00;99.90;;;;;;5043315;28;20373;-67
2022/01/27 05:11:22;;;;;;;34.97;17.73;;;6.00;99.90;;;;;;5035950;28;20083;-67
2022/01/27 05:13:56;;;;;;;34.55;17.67;;;5.90;99.90;;;;;;5038128;28;20364;-68
2022/01/27 05:16:22;;;;;;;34.72;17.58;;;6.00;99.90;;;;;;5048053;28;20037;-67
2022/01/27 05:18:48;;;;;;;34.92;16.75;;;6.00;99.90;;;;;;5039548;28;20457;-67
2022/01/27 05:21:13;;;;;;;33.85;16.95;;;6.00;99.90;;;;;;5037304;28;20307;-68
2022/01/27 05:23:39;;;;;;;30.70;16.70;;;6.00;99.90;;;;;;5035526;28;20127;-67
2022/01/27 05:26:04;;;;;;;31.70;16.85;;;6.00;99.90;;;;;;5048333;28;20369;-67
2022/01/27 05:28:30;;;;;;;31.48;16.52;;;6.00;99.90;;;;;;5046852;28;20036;-67
2022/01/27 05:30:56;;;;;;;31.40;16.25;;;6.00;99.90;;;;;;5044781;28;20041;-68
2022/01/27 05:33:22;;;;;;;33.78;16.38;;;6.00;99.90;;;;;;5046409;28;20053;-69
2022/01/27 05:35:47;;;;;;;34.25;16.75;;;6.10;99.90;;;;;;5049141;28;20056;-68
2022/01/27 05:38:15;;;;;;;32.60;16.90;;;6.10;99.90;;;;;;5049250;28;20040;-71
2022/01/27 05:40:41;;;;;;;36.85;17.48;;;6.10;99.90;;;;;;5039925;28;20422;-69
2022/01/27 05:43:07;;;;;;;34.20;16.35;;;6.10;99.90;;;;;;5047760;28;20059;-67
2022/01/27 05:45:32;;;;;;;31.45;16.10;;;6.10;99.90;;;;;;5039388;28;20053;-68
2022/01/27 05:47:58;;;;;;;31.92;16.80;;;6.10;99.90;;;;;;5044934;28;20040;-67
2022/01/27 05:50:23;;;;;;;36.10;17.40;;;6.10;99.90;;;;;;5048048;28;20390;-67
2022/01/27 05:52:49;;;;;;;30.38;17.10;;;6.10;99.90;;;;;;5050751;28;20057;-68
2022/01/27 05:55:15;;;;;;;33.88;18.00;;;6.10;99.90;;;;;;5049751;28;20100;-68
2022/01/27 05:57:40;;;;;;;35.25;18.30;;;6.10;99.90;;;;;;5041894;28;20472;-68
2022/01/27 06:00:06;;;;;;;35.55;17.92;;;6.10;99.90;;;;;;5049156;28;20526;-67
2022/01/27 06:02:32;;;;;;;36.95;19.00;;;6.00;99.90;;;;;;5046521;28;20051;-68
2022/01/27 06:04:58;;;;;;;38.55;18.33;;;6.00;99.90;;;;;;5049538;28;20053;-67
2022/01/27 06:07:23;;;;;;;40.65;19.45;;;5.90;99.90;;;;;;5048120;28;20041;-67
2022/01/27 06:09:50;;;;;;;41.85;18.13;;;5.90;99.90;;;;;;5043133;28;20048;-67
2022/01/27 06:12:15;;;;;;;44.13;20.88;;;5.90;99.90;;;;;;5040629;28;20037;-67
2022/01/27 06:14:41;;;;;;;39.45;19.65;;;5.90;99.90;;;;;;5041414;28;20049;-67
2022/01/27 06:17:06;;;;;;;39.55;18.52;;;5.90;99.90;;;;;;5044363;28;20045;-69
2022/01/27 06:19:32;;;;;;;38.92;19.67;;;5.90;99.90;;;;;;5046812;28;20103;-67
2022/01/27 06:21:57;;;;;;;40.88;18.58;;;5.90;99.90;;;;;;5044437;28;20059;-67
2022/01/27 06:24:23;;;;;;;41.05;20.05;;;5.80;99.90;;;;;;5043481;28;20125;-66
2022/01/27 06:26:48;;;;;;;37.65;17.58;;;5.80;99.90;;;;;;5048838;28;20065;-69
2022/01/27 06:29:14;;;;;;;40.95;18.77;;;5.80;99.90;;;;;;5049021;28;20036;-68
2022/01/27 06:31:40;;;;;;;42.13;19.23;;;5.90;99.90;;;;;;5049598;28;20037;-67
2022/01/27 06:34:05;;;;;;;41.95;19.55;;;5.80;99.90;;;;;;5049615;28;20037;-68
2022/01/27 06:36:31;;;;;;;41.42;19.52;;;5.90;99.90;;;;;;5056933;28;20056;-68
2022/01/27 06:38:56;;;;;;;41.15;19.55;;;5.80;99.90;;;;;;5050250;28;20087;-67
2022/01/27 06:41:22;;;;;;;37.53;19.17;;;5.90;99.90;;;;;;5043614;28;20053;-67
2022/01/27 06:43:47;;;;;;;50.30;20.98;;;5.80;99.90;;;;;;5048302;28;20416;-67
2022/01/27 06:46:13;;;;;;;49.22;20.60;;;5.90;99.90;;;;;;5044300;28;20106;-67
2022/01/27 06:48:38;;;;;;;48.45;20.65;;;5.80;99.90;;;;;;5043244;28;20479;-67
2022/01/27 06:51:05;;;;;;;43.53;20.40;;;5.80;99.90;;;;;;5056403;28;20079;-68
2022/01/27 06:53:31;;;;;;;41.97;20.80;;;5.90;99.90;;;;;;5055703;28;20121;-68
2022/01/27 06:55:56;;;;;;;49.33;20.95;;;5.90;99.90;;;;;;5055782;28;20516;-68
2022/01/27 06:58:22;;;;;;;47.00;20.45;;;5.80;99.90;;;;;;5054967;28;20052;-68
2022/01/27 07:00:47;;;;;;;45.45;18.95;;;5.90;99.90;;;;;;5052149;28;20120;-68
2022/01/27 07:03:13;;;;;;;46.90;19.70;;;5.90;99.90;;;;;;5048553;28;20206;-68
2022/01/27 07:05:40;;;;;;;53.38;20.80;;;5.90;99.90;;;;;;5048654;28;20116;-68
2022/01/27 07:08:06;;;;;;;46.13;21.20;;;5.90;99.90;;;;;;5070402;28;20040;-68
2022/01/27 07:10:31;;;;;;;50.38;20.88;;;5.90;99.90;;;;;;5064112;28;20042;-67
2022/01/27 07:12:57;;;;;;;42.40;20.13;;;5.90;99.90;;;;;;5062009;28;20045;-67
2022/01/27 07:15:22;;;;;;;41.42;19.17;;;5.90;99.90;;;;;;5050308;28;20062;-67
2022/01/27 07:17:48;;;;;;;44.33;19.15;;;5.90;99.90;;;;;;5047758;28;20235;-67
2022/01/27 07:20:14;;;;;;;51.60;21.10;;;5.90;99.90;;;;;;5056478;28;20063;-67
2022/01/27 07:22:40;;;;;;;43.17;20.40;;;6.00;99.90;;;;;;5055470;28;20548;-67
2022/01/27 07:25:07;;;;;;;46.83;21.15;;;6.00;99.90;;;;;;5049138;28;20091;-68
2022/01/27 07:27:34;;;;;;;41.38;18.67;;;6.00;99.90;;;;;;5049573;28;20422;-68
2022/01/27 07:30:00;;;;;;;41.40;19.63;;;6.00;99.90;;;;;;5050995;28;20403;-68
2022/01/27 07:32:25;;;;;;;46.90;19.98;;;6.00;99.90;;;;;;5047260;28;20049;-68
2022/01/27 07:34:51;;;;;;;42.72;18.33;;;6.00;99.90;;;;;;5050041;28;20100;-68
2022/01/27 07:37:17;;;;;;;43.00;19.08;;;6.00;99.90;;;;;;5048958;28;20041;-69
2022/01/27 07:39:42;;;;;;;46.10;19.70;;;6.10;99.90;;;;;;5053496;28;20041;-68
2022/01/27 07:42:08;;;;;;;45.72;18.83;;;6.10;99.90;;;;;;5049256;28;20057;-67
2022/01/27 07:44:34;;;;;;;41.78;18.88;;;6.10;99.90;;;;;;5047564;28;20417;-68
2022/01/27 07:47:00;;;;;;;37.97;17.42;;;6.20;99.90;;;;;;5049160;28;20120;-70
2022/01/27 07:49:25;;;;;;;36.30;16.80;;;6.20;99.90;;;;;;5047347;28;20064;-68
2022/01/27 07:51:51;;;;;;;40.80;17.75;;;6.20;99.90;;;;;;5049273;28;20049;-68
2022/01/27 07:54:17;;;;;;;44.55;17.30;;;6.30;99.90;;;;;;5049078;28;20064;-69
2022/01/27 07:56:43;;;;;;;43.38;18.02;;;6.30;99.90;;;;;;5049019;28;20053;-68
2022/01/27 07:59:09;;;;;;;36.90;15.65;;;6.40;99.90;;;;;;5049082;28;20094;-69
2022/01/27 08:01:34;;;;;;;45.60;16.23;;;6.50;99.90;;;;;;5049576;28;20041;-68
2022/01/27 08:04:00;;;;;;;34.67;15.82;;;6.50;99.90;;;;;;5047240;28;20121;-68
2022/01/27 08:06:26;;;;;;;40.05;16.42;;;6.50;99.90;;;;;;5048149;28;20091;-67
2022/01/27 08:08:51;;;;;;;39.17;16.55;;;6.60;99.90;;;;;;5049520;28;20400;-68
2022/01/27 08:11:18;;;;;;;39.63;16.20;;;6.60;99.90;;;;;;5051351;28;20044;-69
2022/01/27 08:13:44;;;;;;;44.33;16.17;;;6.70;99.90;;;;;;5047903;28;20111;-68
2022/01/27 08:16:09;;;;;;;41.95;16.45;;;6.70;99.90;;;;;;5049158;28;20049;-68
2022/01/27 08:18:35;;;;;;;36.97;16.60;;;6.80;99.90;;;;;;5047019;28;20062;-68
2022/01/27 08:21:01;;;;;;;39.85;15.88;;;6.80;99.90;;;;;;5048835;28;20053;-68
2022/01/27 08:23:26;;;;;;;40.83;15.23;;;6.80;99.90;;;;;;5046059;28;20080;-69
2022/01/27 08:26:02;;;;;;;35.55;14.93;;;6.90;99.90;;;;;;5049109;28;20120;-68
2022/01/27 08:28:54;;;;;;;34.75;14.30;;;6.90;99.90;;;;;;5048064;28;20080;-68
2022/01/27 08:31:17;;;;;;;38.63;14.63;;;6.90;99.90;;;;;;5061335;28;20053;-68
2022/01/27 08:33:42;;;;;;;38.50;14.85;;;6.90;99.90;;;;;;5046085;28;20067;-68
2022/01/27 08:36:09;;;;;;;33.75;14.20;;;6.90;99.90;;;;;;5048197;28;20055;-67
2022/01/27 08:38:36;;;;;;;38.53;15.07;;;6.90;99.90;;;;;;5048613;28;20059;-68
2022/01/27 08:41:04;;;;;;;34.97;14.88;;;6.90;99.90;;;;;;5058120;28;20041;-67
2022/01/27 08:43:29;;;;;;;37.42;14.60;;;7.00;99.90;;;;;;5054592;28;20111;-67
2022/01/27 08:45:55;;;;;;;36.25;14.68;;;7.00;99.90;;;;;;5053228;28;20464;-68
2022/01/27 08:48:21;;;;;;;38.83;15.25;;;7.00;99.90;;;;;;5047222;28;20047;-67
2022/01/27 08:50:58;;;;;;;30.75;13.73;;;7.00;99.90;;;;;;5048131;28;20519;-68
2022/01/27 08:53:25;;;;;;;40.22;13.60;;;7.10;99.90;;;;;;5053345;28;20044;-67
2022/01/27 08:55:51;;;;;;;42.15;13.68;;;7.10;99.90;;;;;;5066698;28;20147;-68
2022/01/27 08:58:16;;;;;;;34.97;12.52;;;7.10;99.90;;;;;;5049785;28;20124;-68
2022/01/27 09:00:42;;;;;;;30.77;13.60;;;7.20;99.90;;;;;;5048368;28;20132;-68
2022/01/27 09:03:08;;;;;;;30.27;12.60;;;7.20;99.90;;;;;;5049525;28;20434;-66
2022/01/27 09:05:34;;;;;;;27.63;12.75;;;7.20;99.90;;;;;;5068030;28;20045;-67
2022/01/27 09:08:00;;;;;;;34.25;12.70;;;7.30;99.90;;;;;;5051410;28;20465;-67
2022/01/27 09:10:31;;;;;;;29.65;12.13;;;7.40;99.90;;;;;;5047423;28;20400;-67
2022/01/27 09:12:57;;;;;;;30.92;12.43;;;7.50;99.90;;;;;;5047587;28;20162;-68
2022/01/27 09:15:23;;;;;;;28.73;11.57;;;7.50;99.90;;;;;;5067499;28;20098;-68
2022/01/27 09:17:48;;;;;;;28.67;10.57;;;7.60;99.90;;;;;;5052774;28;20622;-69
2022/01/27 09:20:16;;;;;;;28.27;10.57;;;7.70;99.90;;;;;;5047485;28;20136;-67
2022/01/27 09:22:42;;;;;;;36.90;11.65;;;7.70;99.90;;;;;;5037499;28;20116;-68
2022/01/27 09:25:22;;;;;;;33.65;10.55;;;7.80;99.90;;;;;;5050635;28;20067;-67
2022/01/27 09:27:48;;;;;;;27.48;9.95;;;7.80;99.90;;;;;;5051664;28;20142;-68
2022/01/27 09:30:17;;;;;;;29.30;9.95;;;7.70;99.90;;;;;;5051515;28;20099;-68
2022/01/27 09:32:43;;;;;;;30.92;9.55;;;7.80;99.90;;;;;;5050468;28;20040;-67
2022/01/27 09:35:09;;;;;;;23.05;9.57;;;7.70;99.90;;;;;;5066087;28;20507;-67
2022/01/27 09:37:34;;;;;;;30.77;9.70;;;7.70;99.90;;;;;;5069246;28;20143;-67
2022/01/27 09:40:00;;;;;;;24.15;8.85;;;7.70;99.90;;;;;;5070957;28;20045;-67
2022/01/27 09:42:29;;;;;;;22.83;8.55;;;7.80;99.90;;;;;;5070972;28;20040;-68
2022/01/27 09:44:58;;;;;;;25.00;8.55;;;7.80;99.90;;;;;;5046411;28;20388;-67
2022/01/27 09:47:27;;;;;;;29.25;8.70;;;7.90;99.90;;;;;;5049443;28;20481;-67
2022/01/27 09:50:05;;;;;;;21.10;8.10;;;7.90;99.90;;;;;;5051453;28;20037;-67
2022/01/27 09:52:31;;;;;;;24.30;9.05;;;8.00;99.90;;;;;;5049640;28;20099;-67
2022/01/27 09:54:56;;;;;;;24.67;8.20;;;8.10;99.90;;;;;;5050821;28;20049;-68
2022/01/27 09:57:22;;;;;;;22.92;7.38;;;8.10;99.90;;;;;;5050782;28;20087;-68
2022/01/27 09:59:47;;;;;;;20.75;7.93;;;8.10;99.90;;;;;;5050799;28;20118;-68
2022/01/27 10:02:21;;;;;;;19.10;7.05;;;8.10;99.90;;;;;;5054989;28;20061;-68
2022/01/27 10:04:57;;;;;;;22.38;7.30;;;8.10;99.90;;;;;;5056142;28;20037;-68
2022/01/27 10:07:30;;;;;;;25.42;7.32;;;8.00;99.90;;;;;;5050484;28;20076;-70
2022/01/27 10:10:09;;;;;;;19.33;7.68;;;8.10;99.90;;;;;;5051410;28;20511;-68
2022/01/27 10:12:45;;;;;;;24.42;7.63;;;8.10;99.90;;;;;;5055767;28;20056;-68
2022/01/27 10:15:14;;;;;;;19.98;7.43;;;8.00;99.90;;;;;;5053097;28;20047;-67
2022/01/27 10:18:02;;;;;;;21.77;7.47;;;8.10;99.90;;;;;;5067263;28;20052;-68
2022/01/27 10:20:27;;;;;;;24.75;7.43;;;8.10;99.90;;;;;;5029701;28;20435;-68
2022/01/27 10:23:18;;;;;;;25.25;7.40;;;8.10;99.90;;;;;;5043895;28;20037;-68
2022/01/27 10:25:47;;;;;;;22.60;7.78;;;8.20;99.90;;;;;;5038331;28;20049;-68
2022/01/27 10:28:30;;;;;;;21.63;7.18;;;8.20;99.90;;;;;;5032033;28;20065;-68
2022/01/27 10:31:23;;;;;;;19.77;6.78;;;8.20;99.90;;;;;;5029874;28;20132;-69
2022/01/27 10:33:58;;;;;;;18.60;6.53;;;8.20;99.90;;;;;;5043759;28;20041;-68
2022/01/27 10:36:33;;;;;;;19.65;7.28;;;8.20;99.90;;;;;;5049345;28;20127;-67
2022/01/27 10:39:08;;;;;;;22.27;7.40;;;8.20;99.90;;;;;;5064405;28;20044;-67
2022/01/27 10:41:36;;;;;;;21.23;7.38;;;8.30;99.90;;;;;;5068700;28;20060;-67
2022/01/27 10:44:07;;;;;;;23.85;7.13;;;8.30;99.90;;;;;;5051375;28;20345;-68
2022/01/27 10:46:33;;;;;;;21.77;7.32;;;8.40;99.90;;;;;;5049707;28;20093;-68
2022/01/27 10:49:09;;;;;;;21.70;7.57;;;8.40;99.90;;;;;;5047833;28;20500;-66
2022/01/27 10:51:45;;;;;;;28.20;7.40;;;8.40;99.90;;;;;;5050418;28;20163;-67
2022/01/27 10:54:20;;;;;;;21.63;7.00;;;8.50;99.90;;;;;;5062147;28;20211;-68
2022/01/27 10:56:46;;;;;;;;;;;8.40;99.90;;;;;;5070802;28;20049;-68
2022/01/27 10:59:18;;;;;;;26.35;8.02;;;8.40;99.90;;;;;;5069840;28;20341;-68
2022/01/27 11:01:46;;;;;;;17.33;6.78;;;8.50;99.90;;;;;;5067717;28;20036;-68
2022/01/27 11:04:13;;;;;;;20.67;7.47;;;8.50;99.90;;;;;;5052512;28;20090;-68
2022/01/27 11:07:02;;;;;;;18.77;6.75;;;8.50;99.90;;;;;;5059995;28;20119;-67
2022/01/27 11:09:33;;;;;;;19.63;7.00;;;8.60;99.90;;;;;;5069172;28;20368;-68
2022/01/27 11:11:59;;;;;;;19.65;7.28;;;8.60;99.90;;;;;;5057364;28;20048;-70
2022/01/27 11:14:25;;;;;;;23.40;6.82;;;8.60;99.90;;;;;;5028063;28;20371;-68
2022/01/27 11:16:56;;;;;;;21.30;8.02;;;8.70;99.90;;;;;;5029651;28;20125;-67
2022/01/27 11:19:42;;;;;;;23.70;7.07;;;8.80;99.90;;;;;;5035098;28;20048;-68
2022/01/27 11:22:11;;;;;;;19.88;6.38;;;9.00;99.90;;;;;;5055318;28;20389;-67
2022/01/27 11:25:06;;;;;;;20.92;6.45;;;9.10;99.90;;;;;;5067285;28;20084;-67
2022/01/27 11:27:37;;;;;;;19.23;5.90;;;9.20;99.90;;;;;;5029574;28;20562;-68
2022/01/27 11:30:07;;;;;;;20.13;6.30;;;9.40;99.90;;;;;;5041923;28;20045;-68
2022/01/27 11:32:38;;;;;;;17.00;5.85;;;9.50;99.90;;;;;;5056699;28;20435;-68
2022/01/27 11:35:16;;;;;;;17.05;6.30;;;9.60;99.90;;;;;;5050034;28;20492;-68
2022/01/27 11:37:49;;;;;;;18.73;6.25;;;9.70;99.90;;;;;;5047169;28;20159;-67
2022/01/27 11:40:15;;;;;;;17.65;5.75;;;9.70;99.90;;;;;;5049697;28;20048;-68
2022/01/27 11:42:44;;;;;;;18.63;5.00;;;9.70;99.90;;;;;;5057576;28;20044;-67
2022/01/27 11:45:33;;;;;;;15.50;4.68;;;9.60;99.90;;;;;;5065282;28;20056;-67
2022/01/27 11:48:10;;;;;;;19.92;5.60;;;9.60;99.90;;;;;;5044903;28;20057;-69
2022/01/27 11:50:57;;;;;;;16.00;4.68;;;9.50;99.90;;;;;;5048976;28;20041;-68
2022/01/27 11:53:40;;;;;;;13.10;4.82;;;9.40;99.90;;;;;;5028903;28;20149;-69
2022/01/27 11:56:31;;;;;;;16.90;4.72;;;9.40;99.90;;;;;;5037415;28;20037;-68
2022/01/27 11:58:57;;;;;;;12.98;3.75;;;9.30;99.90;;;;;;5048708;28;20053;-69
2022/01/27 12:01:29;;;;;;;13.77;4.10;;;9.30;99.90;;;;;;5048913;28;20033;-68
2022/01/27 12:04:07;;;;;;;14.13;4.03;;;9.30;99.90;;;;;;5047417;28;20049;-68
2022/01/27 12:06:39;;;;;;;13.93;3.67;;;9.40;99.90;;;;;;5045884;28;20044;-67
2022/01/27 12:09:20;;;;;;;13.82;3.80;;;9.50;99.90;;;;;;5047548;28;20144;-68
2022/01/27 12:11:58;;;;;;;13.05;3.58;;;9.50;99.90;;;;;;5031588;28;20114;-68
2022/01/27 12:14:56;;;;;;;19.20;3.90;;;9.50;99.90;;;;;;5030021;28;20052;-67
2022/01/27 12:17:22;;;;;;;16.38;3.80;;;9.50;99.90;;;;;;5042007;28;20263;-69
2022/01/27 12:20:08;;;;;;;10.77;3.13;;;9.50;99.90;;;;;;5047892;28;20045;-68
2022/01/27 12:22:41;;;;;;;;;;;9.50;99.90;;;;;;5047636;28;20045;-67
2022/01/27 12:25:07;;;;;;;14.02;3.20;;;9.50;99.90;;;;;;5048350;28;20402;-68
2022/01/27 12:27:33;;;;;;;16.45;3.40;;;9.50;99.90;;;;;;5045871;28;20040;-68
2022/01/27 12:29:59;;;;;;;19.13;3.63;;;9.50;99.90;;;;;;5048876;28;20053;-68
2022/01/27 12:32:28;;;;;;;14.63;3.58;;;9.50;99.90;;;;;;5059900;28;20480;-69
2022/01/27 12:35:02;;;;;;;11.95;3.22;;;9.40;99.90;;;;;;5046034;28;20123;-68
2022/01/27 12:37:34;;;;;;;16.67;3.57;;;9.40;99.90;;;;;;5061838;28;20045;-69
2022/01/27 12:40:14;;;;;;;12.60;3.72;;;9.40;99.90;;;;;;5043489;28;20059;-68
2022/01/27 12:43:12;;;;;;;15.93;3.40;;;9.40;99.90;;;;;;5047803;28;20045;-68
2022/01/27 12:45:38;;;;;;;16.33;3.63;;;9.40;99.90;;;;;;5045666;28;20053;-68
2022/01/27 12:48:10;;;;;;;15.73;4.30;;;9.40;99.90;;;;;;5065968;28;20139;-69
2022/01/27 12:50:37;;;;;;;11.10;3.35;;;9.40;99.90;;;;;;5054509;28;20071;-68
2022/01/27 12:53:09;;;;;;;18.77;4.03;;;9.50;99.90;;;;;;5048162;28;20049;-67
2022/01/27 12:55:40;;;;;;;9.73;3.15;;;9.50;99.90;;;;;;5047895;28;20340;-68
2022/01/27 12:58:08;;;;;;;15.07;3.40;;;9.50;99.90;;;;;;5033276;28;20470;-68
2022/01/27 13:00:42;;;;;;;14.13;3.80;;;9.50;99.90;;;;;;5056200;28;20040;-68
2022/01/27 13:03:08;;;;;;;12.07;3.15;;;9.50;99.90;;;;;;5045905;28;20060;-68
2022/01/27 13:05:35;;;;;;;16.05;3.53;;;9.50;99.90;;;;;;5048408;28;20110;-68
2022/01/27 13:08:03;;;;;;;13.57;3.30;;;9.60;99.90;;;;;;5065548;28;20448;-69
2022/01/27 13:10:29;;;;;;;14.93;2.60;;;9.60;99.90;;;;;;5056961;28;20091;-68
2022/01/27 13:12:57;;;;;;;13.02;2.60;;;9.60;99.90;;;;;;5048378;28;20080;-68
2022/01/27 13:15:26;;;;;;;17.60;3.92;;;9.60;99.90;;;;;;5047314;28;20357;-68
2022/01/27 13:18:00;;;;;;;14.80;3.25;;;9.60;99.90;;;;;;5062919;28;20350;-69
2022/01/27 13:20:38;;;;;;;17.65;3.22;;;9.60;99.90;;;;;;5052580;28;20045;-68
2022/01/27 13:23:14;;;;;;;17.30;2.92;;;9.60;99.90;;;;;;5047287;28;20101;-68
2022/01/27 13:25:44;;;;;;;13.57;3.05;;;9.50;99.90;;;;;;5048562;28;20041;-68